createdAt,value
2024-02-20T00:00:04.007Z,3.97
2024-02-20T00:00:46.563Z,2.90
2024-02-20T00:01:29.061Z,3.22
2024-02-20T00:02:13.157Z,2.97
2024-02-20T00:02:55.618Z,3.42
2024-02-20T00:03:39.874Z,3.10
2024-02-20T00:04:23.477Z,3.55
2024-02-20T00:05:09.560Z,3.63
2024-02-20T00:05:52.104Z,3.00
2024-02-20T00:06:37.104Z,3.42
2024-02-20T00:07:20.274Z,3.50
2024-02-20T00:08:04.359Z,3.28
2024-02-20T00:08:48.058Z,3.30
2024-02-20T00:09:30.470Z,3.45
2024-02-20T00:10:13.587Z,2.75
2024-02-20T00:10:58.153Z,3.00
2024-02-20T00:11:40.881Z,3.38
2024-02-20T00:12:23.410Z,3.25
2024-02-20T00:13:07.947Z,3.58
2024-02-20T00:13:50.434Z,3.47
2024-02-20T00:14:32.873Z,3.08
2024-02-20T00:15:16.306Z,3.42
2024-02-20T00:15:58.793Z,3.45
2024-02-20T00:16:41.310Z,3.00
2024-02-20T00:17:24.859Z,3.38
2024-02-20T00:18:07.784Z,3.17
2024-02-20T00:18:51.770Z,3.22
2024-02-20T00:19:35.589Z,2.88
2024-02-20T00:20:18.155Z,3.85
2024-02-20T00:21:00.611Z,2.92
2024-02-20T00:21:44.027Z,3.65
2024-02-20T00:22:26.785Z,3.25
2024-02-20T00:23:11.710Z,3.13
2024-02-20T00:23:55.882Z,2.80
2024-02-20T00:24:38.336Z,3.13
2024-02-20T00:25:20.994Z,3.13
2024-02-20T00:26:05.030Z,3.45
2024-02-20T00:26:47.621Z,2.80
2024-02-20T00:27:31.951Z,2.47
2024-02-20T00:28:16.237Z,3.38
2024-02-20T00:28:59.013Z,3.20
2024-02-20T00:29:41.477Z,3.08
2024-02-20T00:30:25.083Z,3.40
2024-02-20T00:31:07.603Z,2.95
2024-02-20T00:31:50.069Z,3.17
2024-02-20T00:32:33.709Z,4.05
2024-02-20T00:33:16.227Z,3.22
2024-02-20T00:34:00.299Z,3.00
2024-02-20T00:34:43.909Z,3.33
2024-02-20T00:35:26.389Z,3.03
2024-02-20T00:36:09.990Z,2.75
2024-02-20T00:36:54.109Z,2.90
2024-02-20T00:37:36.687Z,2.83
2024-02-20T00:38:19.154Z,2.97
2024-02-20T00:39:03.412Z,3.22
2024-02-20T00:39:45.863Z,3.15
2024-02-20T00:40:28.602Z,3.17
2024-02-20T00:41:12.084Z,3.90
2024-02-20T00:41:54.786Z,3.58
2024-02-20T00:42:37.209Z,2.80
2024-02-20T00:43:20.674Z,2.90
2024-02-20T00:44:04.025Z,2.83
2024-02-20T00:44:46.450Z,3.05
2024-02-20T00:45:29.876Z,2.60
2024-02-20T00:46:20.007Z,3.22
2024-02-20T00:47:02.595Z,2.50
2024-02-20T00:47:46.814Z,3.05
2024-02-20T00:48:29.356Z,2.88
2024-02-20T00:49:15.115Z,2.78
2024-02-20T00:50:41.101Z,2.53
2024-02-20T00:51:23.612Z,2.88
2024-02-20T00:52:07.330Z,3.10
2024-02-20T00:52:50.353Z,2.10
2024-02-20T00:53:32.776Z,2.67
2024-02-20T00:54:16.206Z,2.90
2024-02-20T00:54:58.677Z,3.17
2024-02-20T00:55:42.629Z,2.58
2024-02-20T00:56:26.066Z,2.72
2024-02-20T00:57:10.436Z,2.70
2024-02-20T00:57:58.947Z,2.60
2024-02-20T00:58:43.195Z,2.25
2024-02-20T00:59:26.492Z,2.70
2024-02-20T01:00:14.600Z,2.63
2024-02-20T01:00:57.455Z,2.55
2024-02-20T01:01:40.039Z,2.88
2024-02-20T01:02:23.534Z,2.70
2024-02-20T01:03:06.318Z,2.70
2024-02-20T01:03:49.438Z,2.78
2024-02-20T01:04:34.311Z,2.90
2024-02-20T01:05:17.583Z,3.03
2024-02-20T01:06:00.413Z,3.05
2024-02-20T01:06:43.852Z,3.00
2024-02-20T01:07:26.381Z,2.88
2024-02-20T01:08:09.265Z,3.00
2024-02-20T01:08:52.759Z,3.00
2024-02-20T01:09:35.210Z,2.85
2024-02-20T01:10:18.443Z,3.28
2024-02-20T01:11:01.871Z,2.65
2024-02-20T01:11:44.596Z,2.78
2024-02-20T01:12:27.084Z,2.78
2024-02-20T01:13:10.500Z,3.15
2024-02-20T01:13:53.032Z,2.67
2024-02-20T01:14:36.524Z,2.75
2024-02-20T01:15:20.119Z,2.80
2024-02-20T01:16:02.599Z,2.78
2024-02-20T01:16:46.045Z,2.85
2024-02-20T01:17:28.482Z,2.72
2024-02-20T01:18:11.052Z,3.15
2024-02-20T01:18:54.580Z,3.03
2024-02-20T01:19:38.469Z,2.75
2024-02-20T01:20:20.976Z,2.72
2024-02-20T01:21:04.505Z,3.00
2024-02-20T01:21:47.852Z,2.92
2024-02-20T01:22:30.341Z,2.92
2024-02-20T01:23:16.407Z,3.13
2024-02-20T01:23:59.161Z,2.78
2024-02-20T01:24:41.596Z,3.05
2024-02-20T01:25:25.125Z,2.40
2024-02-20T01:26:07.646Z,2.38
2024-02-20T01:26:50.069Z,2.53
2024-02-20T01:27:33.486Z,2.75
2024-02-20T01:28:15.922Z,2.65
2024-02-20T01:28:58.710Z,3.30
2024-02-20T01:29:43.698Z,2.55
2024-02-20T01:30:26.111Z,2.25
2024-02-20T01:31:09.449Z,2.72
2024-02-20T01:31:54.205Z,2.97
2024-02-20T01:32:36.670Z,2.78
2024-02-20T01:33:19.477Z,3.10
2024-02-20T01:34:03.047Z,2.80
2024-02-20T01:34:46.918Z,2.95
2024-02-20T01:35:29.659Z,2.85
2024-02-20T01:36:13.073Z,2.92
2024-02-20T01:36:55.772Z,3.00
2024-02-20T01:37:38.269Z,2.60
2024-02-20T01:38:22.394Z,2.90
2024-02-20T01:39:04.848Z,2.97
2024-02-20T01:39:47.384Z,2.78
2024-02-20T01:40:30.883Z,2.50
2024-02-20T01:41:13.459Z,3.08
2024-02-20T01:41:58.445Z,2.58
2024-02-20T01:42:41.860Z,2.80
2024-02-20T01:43:24.378Z,2.72
2024-02-20T01:44:07.029Z,2.80
2024-02-20T01:44:51.748Z,3.13
2024-02-20T01:45:34.417Z,3.42
2024-02-20T01:46:20.312Z,2.40
2024-02-20T01:47:46.350Z,2.70
2024-02-20T01:48:29.080Z,3.10
2024-02-20T01:49:12.864Z,2.55
2024-02-20T01:49:58.768Z,3.38
2024-02-20T01:51:25.131Z,2.38
2024-02-20T01:52:13.252Z,2.75
2024-02-20T01:52:55.798Z,2.70
2024-02-20T01:53:39.619Z,2.58
2024-02-20T01:54:22.650Z,2.45
2024-02-20T01:55:07.418Z,2.72
2024-02-20T01:55:51.136Z,2.67
2024-02-20T01:56:36.450Z,2.47
2024-02-20T01:57:19.157Z,3.05
2024-02-20T01:58:03.260Z,2.92
2024-02-20T01:58:45.793Z,2.95
2024-02-20T01:59:28.267Z,3.70
2024-02-20T02:00:13.425Z,3.40
2024-02-20T02:00:55.957Z,3.10
2024-02-20T02:01:38.492Z,2.83
2024-02-20T02:02:22.297Z,2.80
2024-02-20T02:03:04.876Z,2.95
2024-02-20T02:03:47.366Z,2.92
2024-02-20T02:04:31.079Z,3.03
2024-02-20T02:05:16.107Z,2.90
2024-02-20T02:05:58.739Z,2.53
2024-02-20T02:06:42.438Z,3.40
2024-02-20T02:07:25.077Z,2.95
2024-02-20T02:08:10.419Z,2.38
2024-02-20T02:08:53.853Z,2.50
2024-02-20T02:09:36.282Z,3.50
2024-02-20T02:10:19.879Z,2.72
2024-02-20T02:11:02.360Z,2.45
2024-02-20T02:11:44.887Z,2.75
2024-02-20T02:12:28.933Z,2.83
2024-02-20T02:13:11.481Z,2.88
2024-02-20T02:13:54.247Z,2.50
2024-02-20T02:14:37.658Z,3.33
2024-02-20T02:15:21.056Z,2.90
2024-02-20T02:16:03.659Z,2.92
2024-02-20T02:16:47.718Z,2.25
2024-02-20T02:17:30.164Z,2.85
2024-02-20T02:18:12.744Z,2.40
2024-02-20T02:18:55.423Z,2.55
2024-02-20T02:19:39.005Z,2.78
2024-02-20T02:20:22.853Z,2.60
2024-02-20T02:21:05.552Z,2.45
2024-02-20T02:21:48.968Z,2.47
2024-02-20T02:22:31.824Z,2.63
2024-02-20T02:23:15.440Z,2.53
2024-02-20T02:23:57.886Z,2.55
2024-02-20T02:24:40.316Z,2.83
2024-02-20T02:25:26.476Z,2.72
2024-02-20T02:26:12.070Z,2.63
2024-02-20T02:26:54.511Z,2.80
2024-02-20T02:27:37.551Z,2.45
2024-02-20T02:28:21.017Z,2.80
2024-02-20T02:29:03.859Z,2.40
2024-02-20T02:29:46.406Z,2.25
2024-02-20T02:30:30.440Z,2.50
2024-02-20T02:31:12.882Z,2.53
2024-02-20T02:31:56.438Z,2.45
2024-02-20T02:32:41.032Z,2.75
2024-02-20T02:33:23.635Z,2.60
2024-02-20T02:34:06.170Z,2.50
2024-02-20T02:34:50.089Z,2.70
2024-02-20T02:35:32.674Z,2.17
2024-02-20T02:36:15.590Z,2.38
2024-02-20T02:36:59.313Z,3.00
2024-02-20T02:37:41.865Z,2.38
2024-02-20T02:38:24.644Z,2.50
2024-02-20T02:39:08.902Z,2.40
2024-02-20T02:39:51.483Z,2.28
2024-02-20T02:40:34.114Z,2.25
2024-02-20T02:41:19.498Z,1.98
2024-02-20T02:42:01.934Z,2.40
2024-02-20T02:42:44.348Z,2.20
2024-02-20T02:43:27.792Z,2.20
2024-02-20T02:44:10.343Z,2.50
2024-02-20T02:44:52.754Z,2.47
2024-02-20T02:45:37.711Z,1.95
2024-02-20T02:46:20.200Z,1.85
2024-02-20T02:47:02.662Z,2.30
2024-02-20T02:47:46.103Z,2.05
2024-02-20T02:48:28.633Z,2.50
2024-02-20T02:49:11.285Z,2.25
2024-02-20T02:49:54.867Z,2.20
2024-02-20T02:50:38.951Z,2.25
2024-02-20T02:51:21.397Z,2.28
2024-02-20T02:52:05.680Z,2.70
2024-02-20T02:52:48.125Z,1.52
2024-02-20T02:53:30.556Z,2.10
2024-02-20T02:54:14.021Z,2.05
2024-02-20T02:54:56.596Z,1.77
2024-02-20T02:55:39.216Z,2.38
2024-02-20T02:56:24.661Z,2.20
2024-02-20T02:57:07.634Z,2.03
2024-02-20T02:57:50.127Z,2.08
2024-02-20T02:58:33.662Z,2.20
2024-02-20T02:59:16.110Z,2.03
2024-02-20T02:59:58.541Z,1.70
2024-02-20T03:00:42.839Z,1.77
2024-02-20T03:01:25.388Z,1.95
2024-02-20T03:02:11.523Z,2.00
2024-02-20T03:02:55.258Z,2.25
2024-02-20T03:03:37.937Z,1.60
2024-02-20T03:04:20.665Z,2.22
2024-02-20T03:05:04.336Z,2.08
2024-02-20T03:05:46.845Z,1.90
2024-02-20T03:06:29.360Z,2.05
2024-02-20T03:07:12.853Z,2.15
2024-02-20T03:07:55.315Z,1.63
2024-02-20T03:08:37.850Z,2.55
2024-02-20T03:09:23.158Z,2.35
2024-02-20T03:10:06.582Z,2.38
2024-02-20T03:10:49.833Z,1.85
2024-02-20T03:11:34.778Z,1.90
2024-02-20T03:12:17.274Z,2.03
2024-02-20T03:12:59.808Z,1.92
2024-02-20T03:13:43.258Z,1.80
2024-02-20T03:14:25.677Z,1.88
2024-02-20T03:15:08.887Z,2.20
2024-02-20T03:15:53.151Z,1.77
2024-02-20T03:16:35.772Z,1.60
2024-02-20T03:17:19.656Z,1.52
2024-02-20T03:18:02.131Z,2.03
2024-02-20T03:18:45.003Z,2.40
2024-02-20T03:19:28.574Z,1.77
2024-02-20T03:20:15.864Z,1.88
2024-02-20T03:20:59.760Z,1.67
2024-02-20T03:21:43.201Z,1.42
2024-02-20T03:22:25.833Z,1.73
2024-02-20T03:23:08.322Z,2.20
2024-02-20T03:23:51.725Z,2.00
2024-02-20T03:24:34.148Z,1.80
2024-02-20T03:25:16.957Z,1.75
2024-02-20T03:26:02.253Z,1.45
2024-02-20T03:26:46.326Z,1.70
2024-02-20T03:27:30.382Z,1.48
2024-02-20T03:28:14.471Z,1.63
2024-02-20T03:28:57.160Z,1.90
2024-02-20T03:29:41.870Z,1.45
2024-02-20T03:30:24.312Z,1.30
2024-02-20T03:31:09.065Z,2.00
2024-02-20T03:31:52.570Z,1.92
2024-02-20T03:32:35.115Z,1.90
2024-02-20T03:33:17.974Z,1.25
2024-02-20T03:34:01.675Z,1.60
2024-02-20T03:34:44.992Z,1.30
2024-02-20T03:35:28.145Z,1.67
2024-02-20T03:36:12.131Z,1.70
2024-02-20T03:36:54.586Z,1.40
2024-02-20T03:37:37.378Z,1.40
2024-02-20T03:38:23.314Z,1.75
2024-02-20T03:39:49.070Z,1.40
2024-02-20T03:40:32.573Z,1.25
2024-02-20T03:41:17.333Z,1.30
2024-02-20T03:42:01.160Z,1.67
2024-02-20T03:42:43.585Z,1.45
2024-02-20T03:43:27.675Z,1.45
2024-02-20T03:44:10.221Z,1.75
2024-02-20T03:44:52.633Z,1.20
2024-02-20T03:45:36.043Z,1.15
2024-02-20T03:46:19.480Z,1.45
2024-02-20T03:47:02.000Z,1.20
2024-02-20T03:47:45.496Z,1.25
2024-02-20T03:48:28.124Z,0.98
2024-02-20T03:49:10.916Z,1.55
2024-02-20T03:49:54.790Z,1.23
2024-02-20T03:50:37.511Z,1.33
2024-02-20T03:51:20.838Z,1.13
2024-02-20T03:52:04.587Z,1.20
2024-02-20T03:52:47.045Z,1.30
2024-02-20T03:53:29.498Z,1.50
2024-02-20T03:54:12.909Z,1.23
2024-02-20T03:54:55.354Z,0.90
2024-02-20T03:55:38.027Z,1.05
2024-02-20T03:56:21.747Z,1.42
2024-02-20T03:57:05.846Z,0.73
2024-02-20T03:57:48.316Z,1.00
2024-02-20T03:58:31.803Z,1.20
2024-02-20T03:59:14.289Z,0.80
2024-02-20T03:59:57.807Z,1.00
2024-02-20T04:00:41.481Z,1.08
2024-02-20T04:01:24.878Z,0.70
2024-02-20T04:02:08.106Z,0.75
2024-02-20T04:02:52.004Z,0.80
2024-02-20T04:03:34.669Z,1.00
2024-02-20T04:04:17.187Z,0.90
2024-02-20T04:05:01.360Z,0.77
2024-02-20T04:05:43.801Z,0.82
2024-02-20T04:06:26.296Z,1.00
2024-02-20T04:07:09.799Z,1.23
2024-02-20T04:07:52.279Z,0.75
2024-02-20T04:08:39.347Z,0.73
2024-02-20T04:09:21.801Z,0.90
2024-02-20T04:10:04.830Z,0.70
2024-02-20T04:10:48.568Z,0.90
2024-02-20T04:11:31.248Z,0.50
2024-02-20T04:12:15.037Z,0.60
2024-02-20T04:12:58.508Z,0.77
2024-02-20T04:13:40.988Z,0.70
2024-02-20T04:14:23.475Z,0.70
2024-02-20T04:15:08.357Z,0.90
2024-02-20T04:15:52.395Z,0.65
2024-02-20T04:16:35.751Z,0.73
2024-02-20T04:17:19.162Z,0.68
2024-02-20T04:18:01.768Z,1.00
2024-02-20T04:18:44.278Z,0.70
2024-02-20T04:19:27.892Z,0.80
2024-02-20T04:20:12.649Z,0.90
2024-02-20T04:20:55.282Z,0.80
2024-02-20T04:21:39.502Z,0.65
2024-02-20T04:22:21.969Z,0.70
2024-02-20T04:23:07.776Z,0.65
2024-02-20T04:23:51.188Z,0.73
2024-02-20T04:24:33.616Z,0.82
2024-02-20T04:25:16.702Z,0.85
2024-02-20T04:26:00.236Z,0.50
2024-02-20T04:26:42.678Z,0.57
2024-02-20T04:27:26.497Z,0.60
2024-02-20T04:28:09.923Z,0.70
2024-02-20T04:28:52.362Z,0.75
2024-02-20T04:29:34.783Z,0.60
2024-02-20T04:30:18.306Z,0.68
2024-02-20T04:31:00.785Z,0.40
2024-02-20T04:31:43.291Z,0.50
2024-02-20T04:32:27.097Z,0.50
2024-02-20T04:33:09.639Z,0.70
2024-02-20T04:33:52.317Z,0.60
2024-02-20T04:34:35.949Z,0.70
2024-02-20T04:35:18.467Z,0.60
2024-02-20T04:36:00.982Z,0.60
2024-02-20T04:36:44.413Z,0.57
2024-02-20T04:37:27.465Z,0.52
2024-02-20T04:38:10.013Z,0.47
2024-02-20T04:38:58.120Z,0.65
2024-02-20T04:39:40.938Z,1.00
2024-02-20T04:40:25.899Z,0.55
2024-02-20T04:41:08.986Z,0.50
2024-02-20T04:41:51.461Z,0.50
2024-02-20T04:42:36.223Z,0.63
2024-02-20T04:43:18.866Z,0.70
2024-02-20T04:44:01.356Z,0.77
2024-02-20T04:44:44.776Z,0.60
2024-02-20T04:45:27.193Z,1.00
2024-02-20T04:46:10.387Z,0.85
2024-02-20T04:46:59.653Z,0.50
2024-02-20T04:47:42.164Z,0.77
2024-02-20T04:48:25.668Z,0.90
2024-02-20T04:49:08.364Z,0.70
2024-02-20T04:49:52.650Z,0.73
2024-02-20T04:50:36.108Z,0.80
2024-02-20T04:51:18.543Z,1.23
2024-02-20T04:52:02.060Z,0.82
2024-02-20T04:52:45.552Z,0.60
2024-02-20T04:53:27.995Z,0.80
2024-02-20T04:54:11.445Z,0.90
2024-02-20T04:54:54.475Z,0.70
2024-02-20T04:55:37.767Z,0.70
2024-02-20T04:56:20.324Z,1.08
2024-02-20T04:57:03.979Z,1.00
2024-02-20T04:57:47.787Z,0.95
2024-02-20T04:58:31.706Z,1.00
2024-02-20T04:59:15.657Z,1.38
2024-02-20T04:59:58.074Z,0.73
2024-02-20T05:00:40.585Z,0.88
2024-02-20T05:01:24.605Z,0.90
2024-02-20T05:02:09.209Z,0.85
2024-02-20T05:02:51.665Z,0.73
2024-02-20T05:03:35.344Z,0.63
2024-02-20T05:04:17.999Z,0.68
2024-02-20T05:05:00.529Z,0.80
2024-02-20T05:05:44.107Z,1.08
2024-02-20T05:06:26.551Z,1.15
2024-02-20T05:07:09.693Z,0.82
2024-02-20T05:07:53.261Z,0.70
2024-02-20T05:08:35.722Z,0.52
2024-02-20T05:09:18.169Z,0.60
2024-02-20T05:10:01.764Z,0.75
2024-02-20T05:10:44.440Z,0.30
2024-02-20T05:11:27.070Z,0.82
2024-02-20T05:12:10.576Z,0.60
2024-02-20T05:12:54.883Z,0.52
2024-02-20T05:13:38.440Z,0.88
2024-02-20T05:14:20.901Z,0.63
2024-02-20T05:15:04.402Z,0.40
2024-02-20T05:15:47.811Z,0.68
2024-02-20T05:16:30.298Z,0.73
2024-02-20T05:17:14.895Z,0.55
2024-02-20T05:17:58.376Z,0.80
2024-02-20T05:18:40.851Z,0.47
2024-02-20T05:19:23.416Z,0.50
2024-02-20T05:20:08.449Z,0.75
2024-02-20T05:20:51.244Z,0.40
2024-02-20T05:21:33.771Z,0.60
2024-02-20T05:22:18.189Z,0.38
2024-02-20T05:23:00.636Z,0.50
2024-02-20T05:23:43.079Z,0.40
2024-02-20T05:24:26.482Z,0.40
2024-02-20T05:25:09.521Z,0.20
2024-02-20T05:25:52.244Z,0.60
2024-02-20T05:26:35.703Z,0.68
2024-02-20T05:27:19.043Z,0.70
2024-02-20T05:28:02.849Z,0.45
2024-02-20T05:28:46.612Z,0.47
2024-02-20T05:29:29.070Z,0.60
2024-02-20T05:30:12.822Z,0.40
2024-02-20T05:30:56.726Z,0.30
2024-02-20T05:31:39.314Z,0.98
2024-02-20T05:32:28.639Z,0.45
2024-02-20T05:33:12.408Z,0.70
2024-02-20T05:33:55.406Z,0.68
2024-02-20T05:34:38.109Z,0.50
2024-02-20T05:35:21.760Z,0.55
2024-02-20T05:36:04.967Z,0.45
2024-02-20T05:36:47.377Z,0.55
2024-02-20T05:37:30.818Z,1.08
2024-02-20T05:38:15.249Z,0.50
2024-02-20T05:39:00.716Z,0.47
2024-02-20T05:39:44.120Z,0.32
2024-02-20T05:40:26.708Z,0.82
2024-02-20T05:41:09.190Z,0.40
2024-02-20T05:41:52.644Z,0.75
2024-02-20T05:42:35.081Z,0.47
2024-02-20T05:43:19.954Z,0.45
2024-02-20T05:44:02.606Z,0.40
2024-02-20T05:44:45.062Z,0.70
2024-02-20T05:45:28.470Z,0.55
2024-02-20T05:46:10.907Z,0.52
2024-02-20T05:46:53.328Z,0.60
2024-02-20T05:47:37.930Z,0.47
2024-02-20T05:48:20.518Z,0.60
2024-02-20T05:49:05.124Z,0.95
2024-02-20T05:49:49.002Z,0.50
2024-02-20T05:50:32.679Z,0.40
2024-02-20T05:51:17.958Z,0.47
2024-02-20T05:52:01.413Z,0.65
2024-02-20T05:52:44.663Z,0.60
2024-02-20T05:53:27.251Z,0.40
2024-02-20T05:54:10.734Z,0.35
2024-02-20T05:54:53.214Z,0.63
2024-02-20T05:55:35.724Z,0.40
2024-02-20T05:56:19.561Z,0.50
2024-02-20T05:57:02.311Z,0.32
2024-02-20T05:57:45.576Z,0.28
2024-02-20T05:58:30.442Z,0.50
2024-02-20T05:59:12.892Z,0.60
2024-02-20T05:59:55.347Z,0.22
2024-02-20T06:00:39.520Z,0.40
2024-02-20T06:01:22.082Z,0.28
2024-02-20T06:02:04.804Z,0.30
2024-02-20T06:02:49.084Z,0.35
2024-02-20T06:03:31.515Z,0.50
2024-02-20T06:04:14.008Z,0.40
2024-02-20T06:04:56.490Z,0.40
2024-02-20T06:05:41.097Z,0.45
2024-02-20T06:06:23.810Z,0.40
2024-02-20T06:07:06.918Z,0.52
2024-02-20T06:07:50.462Z,0.50
2024-02-20T06:08:32.919Z,0.40
2024-02-20T06:09:15.561Z,0.30
2024-02-20T06:09:58.995Z,0.30
2024-02-20T06:10:41.565Z,0.50
2024-02-20T06:11:24.332Z,0.40
2024-02-20T06:12:10.629Z,0.43
2024-02-20T06:12:53.200Z,0.40
2024-02-20T06:13:37.111Z,0.20
2024-02-20T06:14:20.578Z,0.47
2024-02-20T06:15:06.732Z,0.50
2024-02-20T06:15:51.090Z,0.40
2024-02-20T06:16:34.560Z,0.25
2024-02-20T06:17:17.068Z,0.30
2024-02-20T06:18:00.443Z,0.50
2024-02-20T06:18:44.299Z,0.55
2024-02-20T06:19:26.844Z,0.45
2024-02-20T06:20:10.520Z,0.50
2024-02-20T06:20:53.969Z,0.50
2024-02-20T06:21:36.439Z,0.50
2024-02-20T06:22:19.093Z,0.40
2024-02-20T06:23:02.561Z,0.55
2024-02-20T06:23:45.043Z,0.63
2024-02-20T06:24:27.935Z,0.57
2024-02-20T06:25:11.613Z,0.50
2024-02-20T06:25:54.046Z,0.30
2024-02-20T06:26:36.811Z,0.32
2024-02-20T06:27:20.384Z,0.30
2024-02-20T06:28:03.808Z,0.80
2024-02-20T06:28:47.918Z,0.20
2024-02-20T06:29:31.344Z,0.50
2024-02-20T06:30:14.569Z,0.70
2024-02-20T06:30:59.340Z,0.45
2024-02-20T06:31:42.931Z,0.82
2024-02-20T06:32:25.415Z,0.40
2024-02-20T06:33:07.979Z,0.30
2024-02-20T06:33:52.406Z,0.30
2024-02-20T06:34:36.640Z,0.30
2024-02-20T06:35:19.255Z,0.60
2024-02-20T06:36:02.702Z,0.65
2024-02-20T06:36:45.145Z,0.50
2024-02-20T06:37:27.666Z,0.82
2024-02-20T06:38:11.179Z,0.52
2024-02-20T06:38:53.800Z,0.65
2024-02-20T06:39:36.271Z,0.40
2024-02-20T06:40:19.858Z,0.25
2024-02-20T06:41:02.672Z,0.30
2024-02-20T06:41:45.160Z,0.25
2024-02-20T06:42:29.729Z,0.40
2024-02-20T06:43:12.209Z,0.30
2024-02-20T06:43:56.001Z,0.40
2024-02-20T06:44:39.432Z,0.30
2024-02-20T06:45:21.896Z,0.80
2024-02-20T06:46:04.618Z,0.47
2024-02-20T06:46:48.266Z,0.13
2024-02-20T06:47:30.704Z,0.57
2024-02-20T06:48:14.150Z,0.25
2024-02-20T06:48:57.790Z,0.35
2024-02-20T06:49:40.858Z,0.30
2024-02-20T06:50:23.351Z,0.25
2024-02-20T06:51:06.995Z,0.50
2024-02-20T06:51:49.489Z,0.32
2024-02-20T06:52:34.783Z,0.35
2024-02-20T06:53:19.099Z,0.70
2024-02-20T06:54:04.092Z,0.60
2024-02-20T06:54:47.530Z,0.32
2024-02-20T06:55:30.080Z,0.20
2024-02-20T06:56:12.572Z,0.30
2024-02-20T06:56:56.040Z,0.50
2024-02-20T06:57:40.869Z,0.50
2024-02-20T06:58:23.541Z,0.40
2024-02-20T06:59:08.339Z,0.10
2024-02-20T06:59:50.759Z,0.55
2024-02-20T07:00:33.262Z,0.50
2024-02-20T07:01:16.877Z,0.40
2024-02-20T07:01:59.454Z,0.43
2024-02-20T07:02:42.356Z,0.28
2024-02-20T07:03:26.678Z,0.40
2024-02-20T07:04:11.724Z,0.50
2024-02-20T07:04:56.078Z,0.57
2024-02-20T07:05:39.939Z,0.43
2024-02-20T07:06:24.998Z,0.43
2024-02-20T07:07:07.691Z,0.50
2024-02-20T07:07:51.274Z,0.40
2024-02-20T07:08:33.798Z,0.70
2024-02-20T07:09:16.266Z,0.40
2024-02-20T07:09:59.705Z,0.75
2024-02-20T07:10:42.344Z,0.50
2024-02-20T07:11:27.688Z,0.45
2024-02-20T07:12:10.978Z,0.40
2024-02-20T07:12:56.384Z,0.32
2024-02-20T07:13:40.362Z,0.50
2024-02-20T07:14:24.323Z,0.55
2024-02-20T07:15:07.720Z,0.57
2024-02-20T07:15:51.206Z,0.50
2024-02-20T07:16:33.636Z,0.60
2024-02-20T07:17:17.100Z,0.40
2024-02-20T07:17:59.630Z,0.68
2024-02-20T07:18:44.081Z,0.30
2024-02-20T07:19:27.617Z,0.40
2024-02-20T07:20:12.743Z,0.32
2024-02-20T07:20:55.231Z,0.80
2024-02-20T07:21:38.685Z,1.02
2024-02-20T07:22:21.277Z,0.60
2024-02-20T07:23:03.826Z,0.70
2024-02-20T07:23:47.277Z,1.08
2024-02-20T07:24:30.111Z,0.55
2024-02-20T07:25:13.183Z,0.32
2024-02-20T07:25:55.684Z,0.60
2024-02-20T07:26:39.200Z,0.55
2024-02-20T07:27:21.653Z,0.45
2024-02-20T07:28:04.378Z,0.60
2024-02-20T07:28:47.930Z,0.70
2024-02-20T07:29:31.731Z,0.60
2024-02-20T07:30:15.674Z,0.30
2024-02-20T07:30:59.279Z,0.45
2024-02-20T07:31:41.848Z,0.40
2024-02-20T07:32:24.297Z,0.57
2024-02-20T07:33:07.899Z,0.77
2024-02-20T07:34:00.262Z,0.90
2024-02-20T07:34:47.824Z,0.68
2024-02-20T07:35:31.840Z,0.60
2024-02-20T07:36:14.728Z,0.60
2024-02-20T07:36:57.217Z,0.40
2024-02-20T07:37:40.784Z,0.47
2024-02-20T07:38:23.218Z,0.57
2024-02-20T07:39:05.899Z,0.50
2024-02-20T07:39:49.333Z,0.65
2024-02-20T07:40:31.797Z,0.45
2024-02-20T07:41:14.328Z,0.88
2024-02-20T07:41:57.900Z,0.60
2024-02-20T07:42:41.122Z,0.50
2024-02-20T07:43:23.838Z,0.68
2024-02-20T07:44:07.710Z,0.60
2024-02-20T07:44:51.486Z,0.32
2024-02-20T07:45:33.909Z,0.88
2024-02-20T07:46:17.473Z,0.70
2024-02-20T07:46:59.935Z,0.80
2024-02-20T07:47:42.412Z,0.82
2024-02-20T07:48:25.934Z,0.47
2024-02-20T07:49:14.692Z,0.80
2024-02-20T07:49:58.375Z,0.75
2024-02-20T07:50:41.945Z,0.40
2024-02-20T07:51:24.838Z,0.65
2024-02-20T07:52:09.154Z,0.52
2024-02-20T07:52:52.609Z,0.60
2024-02-20T07:53:35.061Z,0.35
2024-02-20T07:54:18.595Z,0.50
2024-02-20T07:55:02.613Z,0.50
2024-02-20T07:55:45.790Z,0.50
2024-02-20T07:56:30.174Z,0.70
2024-02-20T07:57:13.706Z,0.70
2024-02-20T07:57:56.150Z,0.57
2024-02-20T07:58:44.585Z,0.77
2024-02-20T07:59:29.073Z,0.80
2024-02-20T08:00:14.597Z,0.55
2024-02-20T08:00:57.139Z,0.70
2024-02-20T08:01:40.888Z,0.43
2024-02-20T08:02:23.549Z,0.50
2024-02-20T08:03:06.260Z,0.75
2024-02-20T08:03:49.933Z,0.80
2024-02-20T08:04:33.362Z,0.55
2024-02-20T08:05:16.012Z,0.93
2024-02-20T08:06:07.537Z,0.50
2024-02-20T08:06:51.073Z,0.73
2024-02-20T08:07:33.660Z,0.70
2024-02-20T08:08:17.192Z,0.50
2024-02-20T08:08:59.637Z,0.60
2024-02-20T08:09:42.466Z,0.50
2024-02-20T08:10:25.997Z,0.65
2024-02-20T08:11:08.559Z,0.43
2024-02-20T08:11:52.045Z,0.70
2024-02-20T08:12:35.598Z,0.32
2024-02-20T08:13:18.056Z,0.50
2024-02-20T08:14:00.783Z,0.60
2024-02-20T08:14:47.463Z,0.85
2024-02-20T08:15:32.452Z,0.73
2024-02-20T08:16:16.517Z,0.70
2024-02-20T08:17:00.290Z,0.82
2024-02-20T08:17:43.141Z,1.00
2024-02-20T08:18:26.690Z,0.57
2024-02-20T08:19:09.185Z,0.80
2024-02-20T08:19:52.647Z,0.47
2024-02-20T08:20:36.104Z,0.80
2024-02-20T08:21:18.612Z,0.65
2024-02-20T08:22:01.087Z,0.73
2024-02-20T08:22:44.579Z,1.27
2024-02-20T08:23:27.147Z,0.73
2024-02-20T08:24:09.643Z,0.90
2024-02-20T08:24:53.167Z,0.65
2024-02-20T08:25:35.667Z,0.75
2024-02-20T08:26:19.116Z,0.75
2024-02-20T08:27:02.683Z,0.45
2024-02-20T08:27:45.213Z,0.68
2024-02-20T08:28:28.753Z,1.02
2024-02-20T08:29:13.386Z,0.93
2024-02-20T08:29:56.912Z,0.80
2024-02-20T08:30:40.691Z,0.57
2024-02-20T08:31:23.203Z,0.43
2024-02-20T08:32:07.063Z,0.60
2024-02-20T08:32:49.570Z,0.63
2024-02-20T08:33:32.114Z,0.60
2024-02-20T08:34:15.739Z,0.55
2024-02-20T08:34:58.502Z,0.77
2024-02-20T08:35:41.099Z,0.63
2024-02-20T08:36:24.531Z,0.60
2024-02-20T08:37:07.108Z,0.80
2024-02-20T08:37:49.732Z,0.80
2024-02-20T08:38:33.154Z,0.55
2024-02-20T08:39:15.599Z,0.50
2024-02-20T08:39:59.118Z,0.63
2024-02-20T08:40:41.676Z,0.45
2024-02-20T08:41:24.136Z,0.70
2024-02-20T08:42:07.827Z,0.85
2024-02-20T08:42:50.281Z,0.50
2024-02-20T08:43:32.973Z,0.80
2024-02-20T08:44:16.495Z,1.02
2024-02-20T08:44:58.934Z,0.70
2024-02-20T08:45:42.871Z,0.90
2024-02-20T08:46:26.417Z,0.65
2024-02-20T08:47:08.941Z,0.60
2024-02-20T08:47:52.670Z,0.40
2024-02-20T08:48:36.206Z,0.60
2024-02-20T08:49:18.706Z,0.70
2024-02-20T08:50:01.274Z,0.52
2024-02-20T08:50:51.019Z,0.57
2024-02-20T08:51:33.882Z,0.85
2024-02-20T08:52:17.747Z,0.52
2024-02-20T08:53:03.066Z,0.63
2024-02-20T08:53:47.748Z,0.80
2024-02-20T08:54:31.401Z,0.70
2024-02-20T08:55:15.019Z,1.35
2024-02-20T08:55:59.312Z,0.98
2024-02-20T08:56:42.802Z,1.00
2024-02-20T08:57:25.241Z,1.20
2024-02-20T08:58:07.741Z,1.15
2024-02-20T08:58:53.141Z,0.90
2024-02-20T08:59:35.582Z,0.90
2024-02-20T09:00:22.954Z,0.88
2024-02-20T09:01:06.956Z,1.08
2024-02-20T09:01:50.589Z,1.35
2024-02-20T09:02:33.176Z,0.90
2024-02-20T09:03:15.758Z,1.70
2024-02-20T09:04:00.598Z,1.20
2024-02-20T09:04:44.248Z,1.23
2024-02-20T09:05:27.055Z,0.63
2024-02-20T09:06:11.599Z,0.93
2024-02-20T09:06:54.269Z,1.08
2024-02-20T09:07:36.904Z,0.70
2024-02-20T09:08:20.385Z,1.45
2024-02-20T09:09:02.992Z,0.75
2024-02-20T09:09:45.488Z,1.00
2024-02-20T09:10:29.021Z,1.40
2024-02-20T09:11:11.940Z,0.77
2024-02-20T09:11:54.492Z,1.23
2024-02-20T09:12:37.952Z,1.38
2024-02-20T09:13:20.472Z,1.48
2024-02-20T09:14:03.040Z,1.10
2024-02-20T09:14:46.503Z,1.40
2024-02-20T09:15:28.960Z,1.20
2024-02-20T09:16:12.858Z,0.90
2024-02-20T09:16:56.326Z,1.15
2024-02-20T09:17:39.255Z,1.05
2024-02-20T09:18:21.797Z,1.10
2024-02-20T09:19:05.338Z,1.25
2024-02-20T09:19:47.888Z,1.23
2024-02-20T09:20:30.409Z,1.05
2024-02-20T09:21:19.128Z,1.80
2024-02-20T09:22:05.034Z,1.02
2024-02-20T09:22:49.164Z,1.27
2024-02-20T09:23:37.379Z,1.00
2024-02-20T09:24:20.343Z,1.58
2024-02-20T09:25:02.921Z,1.02
2024-02-20T09:25:47.516Z,1.17
2024-02-20T09:26:31.392Z,1.38
2024-02-20T09:27:13.906Z,1.13
2024-02-20T09:27:57.456Z,0.80
2024-02-20T09:28:40.022Z,1.20
2024-02-20T09:29:24.643Z,1.15
2024-02-20T09:30:11.756Z,1.33
2024-02-20T09:30:54.205Z,1.02
2024-02-20T09:31:38.260Z,1.05
2024-02-20T09:32:20.751Z,1.25
2024-02-20T09:33:04.404Z,1.55
2024-02-20T09:33:46.982Z,0.98
2024-02-20T09:34:29.640Z,1.33
2024-02-20T09:35:13.471Z,1.42
2024-02-20T09:35:55.929Z,0.70
2024-02-20T09:36:38.349Z,1.05
2024-02-20T09:37:21.809Z,1.17
2024-02-20T09:38:04.797Z,1.45
2024-02-20T09:38:47.252Z,1.65
2024-02-20T09:39:30.677Z,1.15
2024-02-20T09:40:17.888Z,0.95